Hagerstown, Indiana
Current Conditions -  °F | °C
As of 11:53 PM on Wednesday 26 Nov 2014 (Local Time) from KMIE Reporting Station
Overcast Overcast  
Wind Chill: 21°   Ceiling: 2100
Heat Index: 28°   Visibility: 10mi
Dew Point: 22°   Wind: 7mph
Humidity: 78%   Direction: 360°N
Pressure: 30.09"   Gusts: NA
Location:  39.91°N, 85.16°W
Report Text: KMIE 270453Z AUTO 36006KT 10SM OVC021 M02/M06 A3009 RMK AO2 SLP198 T10221056 410111028
Loading
Personal Weather Stations






























Interactive Weather Map New forecast layout! Learn more

10-Day Weather Forecast

Advertisements
Track Severe Weather on mobile